<?xml version="1.0" encoding="UTF-8" standalone="no" ?>
<gpx xmlns="http://www.topografix.com/GPX/1/1" xmlns:xsi="http://www.w3.org/2001/XMLSchema-instance" xsi:schemaLocation="http://www.topografix.com/GPX/1/1 http://www.topografix.com/GPX/1/1/gpx.xsd" version="1.1" creator="VisuGPX - https://www.visugpx.com">
  <metadata>
    <name>rando Montferrand </name>
    <desc><![CDATA[rando montferrand ]]></desc>
  </metadata>
  <trk>
    <name><![CDATA[ACTIVE LOG 001]]></name>
    <trkseg>
      <trkpt lat="47.18677" lon="5.94852">
        <ele>226.0471191</ele>
        <time>2011-12-11T09:38:23Z</time>
      </trkpt>
      <trkpt lat="47.18653" lon="5.94842">
        <ele>232.2957764</ele>
        <time>2011-12-11T09:38:44Z</time>
      </trkpt>
      <trkpt lat="47.18618" lon="5.94856">
        <ele>231.3343506</ele>
        <time>2011-12-11T09:40:56Z</time>
      </trkpt>
      <trkpt lat="47.1865" lon="5.94814">
        <ele>236.6217041</ele>
        <time>2011-12-11T09:41:54Z</time>
      </trkpt>
      <trkpt lat="47.1864" lon="5.94793">
        <ele>239.5054932</ele>
        <time>2011-12-11T09:42:17Z</time>
      </trkpt>
      <trkpt lat="47.18625" lon="5.94788">
        <ele>241.4282227</ele>
        <time>2011-12-11T09:42:36Z</time>
      </trkpt>
      <trkpt lat="47.18578" lon="5.94705">
        <ele>245.7541504</ele>
        <time>2011-12-11T09:44:02Z</time>
      </trkpt>
      <trkpt lat="47.18539" lon="5.9473">
        <ele>263.0578613</ele>
        <time>2011-12-11T09:46:08Z</time>
      </trkpt>
      <trkpt lat="47.18526" lon="5.9474">
        <ele>265.9418945</ele>
        <time>2011-12-11T09:46:38Z</time>
      </trkpt>
      <trkpt lat="47.18327" lon="5.94505">
        <ele>312.0852051</ele>
        <time>2011-12-11T09:53:59Z</time>
      </trkpt>
      <trkpt lat="47.18277" lon="5.94468">
        <ele>321.6983643</ele>
        <time>2011-12-11T09:55:51Z</time>
      </trkpt>
      <trkpt lat="47.1823" lon="5.94417">
        <ele>324.5822754</ele>
        <time>2011-12-11T09:59:15Z</time>
      </trkpt>
      <trkpt lat="47.18105" lon="5.94219">
        <ele>333.7147217</ele>
        <time>2011-12-11T10:03:22Z</time>
      </trkpt>
      <trkpt lat="47.18059" lon="5.94078">
        <ele>339.482666</ele>
        <time>2011-12-11T10:05:35Z</time>
      </trkpt>
      <trkpt lat="47.18022" lon="5.93976">
        <ele>334.6761475</ele>
        <time>2011-12-11T10:07:07Z</time>
      </trkpt>
      <trkpt lat="47.18002" lon="5.93891">
        <ele>331.7921143</ele>
        <time>2011-12-11T10:08:11Z</time>
      </trkpt>
      <trkpt lat="47.17939" lon="5.93755">
        <ele>329.8695068</ele>
        <time>2011-12-11T10:09:56Z</time>
      </trkpt>
      <trkpt lat="47.17883" lon="5.93587">
        <ele>325.0629883</ele>
        <time>2011-12-11T10:11:54Z</time>
      </trkpt>
      <trkpt lat="47.17821" lon="5.93421">
        <ele>317.3724365</ele>
        <time>2011-12-11T10:13:52Z</time>
      </trkpt>
      <trkpt lat="47.17766" lon="5.93305">
        <ele>317.3724365</ele>
        <time>2011-12-11T10:15:52Z</time>
      </trkpt>
      <trkpt lat="47.17724" lon="5.9326">
        <ele>321.2177734</ele>
        <time>2011-12-11T10:17:17Z</time>
      </trkpt>
      <trkpt lat="47.17694" lon="5.93143">
        <ele>312.5657959</ele>
        <time>2011-12-11T10:18:57Z</time>
      </trkpt>
      <trkpt lat="47.17652" lon="5.93085">
        <ele>311.6044922</ele>
        <time>2011-12-11T10:19:51Z</time>
      </trkpt>
      <trkpt lat="47.17639" lon="5.93016">
        <ele>308.2398682</ele>
        <time>2011-12-11T10:20:44Z</time>
      </trkpt>
      <trkpt lat="47.17552" lon="5.92787">
        <ele>316.8917236</ele>
        <time>2011-12-11T10:24:11Z</time>
      </trkpt>
      <trkpt lat="47.17514" lon="5.92747">
        <ele>326.9855957</ele>
        <time>2011-12-11T10:25:33Z</time>
      </trkpt>
      <trkpt lat="47.17502" lon="5.92743">
        <ele>327.4661865</ele>
        <time>2011-12-11T10:25:49Z</time>
      </trkpt>
      <trkpt lat="47.17498" lon="5.92734">
        <ele>329.8695068</ele>
        <time>2011-12-11T10:26:08Z</time>
      </trkpt>
      <trkpt lat="47.17495" lon="5.92703">
        <ele>327.4661865</ele>
        <time>2011-12-11T10:26:47Z</time>
      </trkpt>
      <trkpt lat="47.17487" lon="5.92686">
        <ele>329.388916</ele>
        <time>2011-12-11T10:27:05Z</time>
      </trkpt>
      <trkpt lat="47.17475" lon="5.92683">
        <ele>337.5600586</ele>
        <time>2011-12-11T10:30:32Z</time>
      </trkpt>
      <trkpt lat="47.1747" lon="5.92691">
        <ele>337.0794678</ele>
        <time>2011-12-11T10:31:29Z</time>
      </trkpt>
      <trkpt lat="47.17441" lon="5.92621">
        <ele>345.7313232</ele>
        <time>2011-12-11T11:02:51Z</time>
      </trkpt>
      <trkpt lat="47.17423" lon="5.92513">
        <ele>335.6373291</ele>
        <time>2011-12-11T11:05:10Z</time>
      </trkpt>
      <trkpt lat="47.17412" lon="5.92523">
        <ele>336.1181641</ele>
        <time>2011-12-11T11:05:34Z</time>
      </trkpt>
      <trkpt lat="47.17435" lon="5.92552">
        <ele>337.0794678</ele>
        <time>2011-12-11T11:06:26Z</time>
      </trkpt>
      <trkpt lat="47.17446" lon="5.92614">
        <ele>343.8085938</ele>
        <time>2011-12-11T11:07:39Z</time>
      </trkpt>
      <trkpt lat="47.17465" lon="5.92656">
        <ele>346.692627</ele>
        <time>2011-12-11T11:08:14Z</time>
      </trkpt>
      <trkpt lat="47.17497" lon="5.92701">
        <ele>341.8859863</ele>
        <time>2011-12-11T11:09:56Z</time>
      </trkpt>
      <trkpt lat="47.17498" lon="5.9273">
        <ele>344.2894287</ele>
        <time>2011-12-11T11:10:30Z</time>
      </trkpt>
      <trkpt lat="47.17503" lon="5.92743">
        <ele>340.9246826</ele>
        <time>2011-12-11T11:10:55Z</time>
      </trkpt>
      <trkpt lat="47.17519" lon="5.92745">
        <ele>339.482666</ele>
        <time>2011-12-11T11:11:21Z</time>
      </trkpt>
      <trkpt lat="47.17538" lon="5.92779">
        <ele>336.1181641</ele>
        <time>2011-12-11T11:12:17Z</time>
      </trkpt>
      <trkpt lat="47.17547" lon="5.92786">
        <ele>332.75354</ele>
        <time>2011-12-11T11:12:40Z</time>
      </trkpt>
      <trkpt lat="47.17636" lon="5.93009">
        <ele>327.9467773</ele>
        <time>2011-12-11T11:16:54Z</time>
      </trkpt>
      <trkpt lat="47.1765" lon="5.93088">
        <ele>333.2341309</ele>
        <time>2011-12-11T11:18:18Z</time>
      </trkpt>
      <trkpt lat="47.1769" lon="5.93142">
        <ele>336.1181641</ele>
        <time>2011-12-11T11:19:24Z</time>
      </trkpt>
      <trkpt lat="47.17719" lon="5.93257">
        <ele>347.1732178</ele>
        <time>2011-12-11T11:22:14Z</time>
      </trkpt>
      <trkpt lat="47.17714" lon="5.93266">
        <ele>347.1732178</ele>
        <time>2011-12-11T11:22:40Z</time>
      </trkpt>
      <trkpt lat="47.17739" lon="5.93276">
        <ele>346.692627</ele>
        <time>2011-12-11T11:23:35Z</time>
      </trkpt>
      <trkpt lat="47.17804" lon="5.93382">
        <ele>346.692627</ele>
        <time>2011-12-11T11:25:15Z</time>
      </trkpt>
      <trkpt lat="47.17752" lon="5.93209">
        <ele>335.6373291</ele>
        <time>2011-12-11T11:27:44Z</time>
      </trkpt>
      <trkpt lat="47.17724" lon="5.9305">
        <ele>315.4498291</ele>
        <time>2011-12-11T11:29:56Z</time>
      </trkpt>
      <trkpt lat="47.17825" lon="5.93188">
        <ele>313.5272217</ele>
        <time>2011-12-11T11:32:46Z</time>
      </trkpt>
      <trkpt lat="47.17943" lon="5.93431">
        <ele>318.8143311</ele>
        <time>2011-12-11T11:36:17Z</time>
      </trkpt>
      <trkpt lat="47.17995" lon="5.93577">
        <ele>317.8530273</ele>
        <time>2011-12-11T11:38:16Z</time>
      </trkpt>
      <trkpt lat="47.18089" lon="5.9374">
        <ele>316.4110107</ele>
        <time>2011-12-11T11:40:36Z</time>
      </trkpt>
      <trkpt lat="47.18167" lon="5.93934">
        <ele>336.1181641</ele>
        <time>2011-12-11T11:43:51Z</time>
      </trkpt>
      <trkpt lat="47.18178" lon="5.93951">
        <ele>335.6373291</ele>
        <time>2011-12-11T11:44:06Z</time>
      </trkpt>
      <trkpt lat="47.1822" lon="5.94046">
        <ele>331.3115234</ele>
        <time>2011-12-11T11:45:28Z</time>
      </trkpt>
      <trkpt lat="47.18261" lon="5.94105">
        <ele>327.9467773</ele>
        <time>2011-12-11T11:46:23Z</time>
      </trkpt>
      <trkpt lat="47.1827" lon="5.94123">
        <ele>326.5048828</ele>
        <time>2011-12-11T11:46:37Z</time>
      </trkpt>
      <trkpt lat="47.18312" lon="5.94146">
        <ele>324.5822754</ele>
        <time>2011-12-11T11:47:19Z</time>
      </trkpt>
      <trkpt lat="47.18408" lon="5.94271">
        <ele>321.6983643</ele>
        <time>2011-12-11T11:48:58Z</time>
      </trkpt>
      <trkpt lat="47.18436" lon="5.94374">
        <ele>320.2563477</ele>
        <time>2011-12-11T11:50:23Z</time>
      </trkpt>
      <trkpt lat="47.18462" lon="5.94431">
        <ele>315.4498291</ele>
        <time>2011-12-11T11:51:08Z</time>
      </trkpt>
      <trkpt lat="47.1848" lon="5.9453">
        <ele>312.5657959</ele>
        <time>2011-12-11T11:52:12Z</time>
      </trkpt>
      <trkpt lat="47.18556" lon="5.94658">
        <ele>310.1624756</ele>
        <time>2011-12-11T11:53:48Z</time>
      </trkpt>
      <trkpt lat="47.18559" lon="5.94687">
        <ele>312.5657959</ele>
        <time>2011-12-11T11:58:01Z</time>
      </trkpt>
      <trkpt lat="47.18576" lon="5.94712">
        <ele>311.6044922</ele>
        <time>2011-12-11T11:58:24Z</time>
      </trkpt>
      <trkpt lat="47.18643" lon="5.94834">
        <ele>302.9525146</ele>
        <time>2011-12-11T11:59:56Z</time>
      </trkpt>
      <trkpt lat="47.18622" lon="5.94878">
        <ele>296.2235107</ele>
        <time>2011-12-11T12:00:38Z</time>
      </trkpt>
      <trkpt lat="47.18676" lon="5.949">
        <ele>290.4555664</ele>
        <time>2011-12-11T12:01:22Z</time>
      </trkpt>
      <trkpt lat="47.18704" lon="5.94949">
        <ele>280.8424072</ele>
        <time>2011-12-11T12:03:00Z</time>
      </trkpt>
      <trkpt lat="47.18696" lon="5.94975">
        <ele>277.4776611</ele>
        <time>2011-12-11T12:03:21Z</time>
      </trkpt>
      <trkpt lat="47.18621" lon="5.95031">
        <ele>270.2677002</ele>
        <time>2011-12-11T12:04:35Z</time>
      </trkpt>
      <trkpt lat="47.18611" lon="5.95066">
        <ele>269.3065186</ele>
        <time>2011-12-11T12:04:55Z</time>
      </trkpt>
      <trkpt lat="47.18589" lon="5.95179">
        <ele>258.7319336</ele>
        <time>2011-12-11T12:06:12Z</time>
      </trkpt>
      <trkpt lat="47.18592" lon="5.95444">
        <ele>255.8480225</ele>
        <time>2011-12-11T12:08:28Z</time>
      </trkpt>
      <trkpt lat="47.18605" lon="5.95571">
        <ele>253.925415</ele>
        <time>2011-12-11T12:09:39Z</time>
      </trkpt>
      <trkpt lat="47.18612" lon="5.95601">
        <ele>252.4833984</ele>
        <time>2011-12-11T12:09:56Z</time>
      </trkpt>
      <trkpt lat="47.18676" lon="5.95747">
        <ele>253.4447021</ele>
        <time>2011-12-11T12:12:26Z</time>
      </trkpt>
      <trkpt lat="47.18681" lon="5.95783">
        <ele>251.5220947</ele>
        <time>2011-12-11T12:13:32Z</time>
      </trkpt>
      <trkpt lat="47.18768" lon="5.95925">
        <ele>252.4833984</ele>
        <time>2011-12-11T12:15:21Z</time>
      </trkpt>
      <trkpt lat="47.18853" lon="5.96024">
        <ele>249.5994873</ele>
        <time>2011-12-11T12:16:57Z</time>
      </trkpt>
      <trkpt lat="47.18943" lon="5.96096">
        <ele>244.3122559</ele>
        <time>2011-12-11T12:18:19Z</time>
      </trkpt>
      <trkpt lat="47.18989" lon="5.96068">
        <ele>245.7541504</ele>
        <time>2011-12-11T12:19:18Z</time>
      </trkpt>
      <trkpt lat="47.19142" lon="5.95982">
        <ele>240.9476318</ele>
        <time>2011-12-11T12:21:34Z</time>
      </trkpt>
      <trkpt lat="47.19214" lon="5.95969">
        <ele>238.5443115</ele>
        <time>2011-12-11T12:22:30Z</time>
      </trkpt>
      <trkpt lat="47.19237" lon="5.95895">
        <ele>238.0635986</ele>
        <time>2011-12-11T12:23:49Z</time>
      </trkpt>
      <trkpt lat="47.19266" lon="5.95855">
        <ele>237.1022949</ele>
        <time>2011-12-11T12:24:37Z</time>
      </trkpt>
      <trkpt lat="47.1926" lon="5.9577">
        <ele>238.0635986</ele>
        <time>2011-12-11T12:25:29Z</time>
      </trkpt>
      <trkpt lat="47.19295" lon="5.95656">
        <ele>238.0635986</ele>
        <time>2011-12-11T12:26:44Z</time>
      </trkpt>
      <trkpt lat="47.19294" lon="5.95543">
        <ele>239.0249023</ele>
        <time>2011-12-11T12:27:55Z</time>
      </trkpt>
      <trkpt lat="47.19278" lon="5.95533">
        <ele>238.5443115</ele>
        <time>2011-12-11T12:28:11Z</time>
      </trkpt>
      <trkpt lat="47.19254" lon="5.95475">
        <ele>238.5443115</ele>
        <time>2011-12-11T12:28:53Z</time>
      </trkpt>
      <trkpt lat="47.19206" lon="5.95472">
        <ele>240.9476318</ele>
        <time>2011-12-11T12:29:42Z</time>
      </trkpt>
      <trkpt lat="47.19169" lon="5.954">
        <ele>246.7154541</ele>
        <time>2011-12-11T12:30:35Z</time>
      </trkpt>
      <trkpt lat="47.19093" lon="5.95304">
        <ele>253.925415</ele>
        <time>2011-12-11T12:32:10Z</time>
      </trkpt>
      <trkpt lat="47.19059" lon="5.95265">
        <ele>256.3287354</ele>
        <time>2011-12-11T12:32:50Z</time>
      </trkpt>
      <trkpt lat="47.19034" lon="5.95232">
        <ele>257.770752</ele>
        <time>2011-12-11T12:33:18Z</time>
      </trkpt>
      <trkpt lat="47.18948" lon="5.95148">
        <ele>259.2126465</ele>
        <time>2011-12-11T12:34:44Z</time>
      </trkpt>
      <trkpt lat="47.18862" lon="5.95038">
        <ele>260.654541</ele>
        <time>2011-12-11T12:36:12Z</time>
      </trkpt>
      <trkpt lat="47.1875" lon="5.94974">
        <ele>269.3065186</ele>
        <time>2011-12-11T12:38:01Z</time>
      </trkpt>
      <trkpt lat="47.18711" lon="5.94972">
        <ele>271.229126</ele>
        <time>2011-12-11T12:38:36Z</time>
      </trkpt>
      <trkpt lat="47.18679" lon="5.94912">
        <ele>279.8808594</ele>
        <time>2011-12-11T12:39:29Z</time>
      </trkpt>
    </trkseg>
  </trk>
</gpx>